createdAt,value
2023-01-05T00:01:53.358Z,46.31
2023-01-05T00:04:43.520Z,46.36
2023-01-05T00:07:32.228Z,46.20
2023-01-05T00:10:34.716Z,46.36
2023-01-05T00:13:41.292Z,46.31
2023-01-05T00:16:47.497Z,46.27
2023-01-05T00:19:54.657Z,46.57
2023-01-05T00:22:46.772Z,46.97
2023-01-05T00:25:39.050Z,46.95
2023-01-05T00:28:27.733Z,46.84
2023-01-05T00:31:16.392Z,47.02
2023-01-05T00:34:05.039Z,47.18
2023-01-05T00:36:53.695Z,47.34
2023-01-05T00:39:43.768Z,47.64
2023-01-05T00:42:32.355Z,47.66
2023-01-05T00:45:21.953Z,47.29
2023-01-05T00:48:10.641Z,47.37
2023-01-05T00:50:59.224Z,47.19
2023-01-05T00:53:49.696Z,47.67
2023-01-05T00:56:40.902Z,47.67
2023-01-05T00:59:29.526Z,47.49
2023-01-05T01:02:18.204Z,47.99
2023-01-05T01:05:07.823Z,47.90
2023-01-05T01:07:56.488Z,48.18
2023-01-05T01:10:45.062Z,47.73
2023-01-05T01:13:35.118Z,47.91
2023-01-05T01:16:23.849Z,47.76
2023-01-05T01:19:15.603Z,47.93
2023-01-05T01:22:04.377Z,47.96
2023-01-05T01:24:53.850Z,47.79
2023-01-05T01:27:42.523Z,47.92
2023-01-05T01:30:32.637Z,47.85
2023-01-05T01:33:21.353Z,47.81
2023-01-05T01:36:11.707Z,48.05
2023-01-05T01:39:00.331Z,47.76
2023-01-05T01:41:49.263Z,47.97
2023-01-05T01:44:56.003Z,47.91
2023-01-05T01:47:51.142Z,47.67
2023-01-05T01:50:43.302Z,47.79
2023-01-05T01:53:34.003Z,48.14
2023-01-05T01:56:24.555Z,48.04
2023-01-05T01:59:13.417Z,47.96
2023-01-05T02:02:03.332Z,48.00
2023-01-05T02:04:53.423Z,48.15
2023-01-05T02:07:46.184Z,47.61
2023-01-05T02:10:50.802Z,47.82
2023-01-05T02:13:50.449Z,47.75
2023-01-05T02:16:48.939Z,47.67
2023-01-05T02:20:03.985Z,47.78
2023-01-05T02:23:11.992Z,47.87
2023-01-05T02:26:35.025Z,47.89
2023-01-05T02:29:55.309Z,47.91
2023-01-05T02:32:49.390Z,47.87
2023-01-05T02:35:43.604Z,47.74
2023-01-05T02:38:36.718Z,47.80
2023-01-05T02:41:27.870Z,47.87
2023-01-05T02:44:17.972Z,48.28
2023-01-05T02:47:08.498Z,48.21
2023-01-05T02:50:02.431Z,48.07
2023-01-05T02:52:57.799Z,48.04
2023-01-05T02:55:53.684Z,48.05
2023-01-05T02:58:45.630Z,47.88
2023-01-05T03:01:36.043Z,48.24
2023-01-05T03:04:27.616Z,48.45
2023-01-05T03:07:20.634Z,48.41
2023-01-05T03:10:23.754Z,48.16
2023-01-05T03:13:30.255Z,48.36
2023-01-05T03:16:23.363Z,48.35
2023-01-05T03:19:31.787Z,48.20
2023-01-05T03:22:43.196Z,48.33
2023-01-05T03:25:49.645Z,48.11
2023-01-05T03:28:59.851Z,48.11
2023-01-05T03:32:08.670Z,48.42
2023-01-05T03:35:18.050Z,48.00
2023-01-05T03:38:18.122Z,48.27
2023-01-05T03:41:10.209Z,48.40
2023-01-05T03:43:58.935Z,48.50
2023-01-05T03:46:47.734Z,48.51
2023-01-05T03:49:36.600Z,48.51
2023-01-05T03:52:25.258Z,48.81
2023-01-05T03:55:15.244Z,48.63
2023-01-05T03:58:03.960Z,48.57
2023-01-05T04:00:52.584Z,48.03
2023-01-05T04:03:41.869Z,48.54
2023-01-05T04:06:30.592Z,48.49
2023-01-05T04:09:19.225Z,48.68
2023-01-05T04:12:09.332Z,48.48
2023-01-05T04:14:57.968Z,48.80
2023-01-05T04:17:46.574Z,48.72
2023-01-05T04:20:35.146Z,48.35
2023-01-05T04:23:23.765Z,48.48
2023-01-05T04:26:12.354Z,48.27
2023-01-05T04:29:02.338Z,48.33
2023-01-05T04:31:50.861Z,48.16
2023-01-05T04:34:39.552Z,48.23
2023-01-05T04:37:28.196Z,48.44
2023-01-05T04:40:16.974Z,48.41
2023-01-05T04:43:05.848Z,48.45
2023-01-05T04:45:55.843Z,48.34
2023-01-05T04:48:44.437Z,48.45
2023-01-05T04:51:33.111Z,48.54
2023-01-05T04:54:21.772Z,48.39
2023-01-05T04:57:10.397Z,48.46
2023-01-05T04:59:59.032Z,48.48
2023-01-05T05:02:50.026Z,48.45
2023-01-05T05:05:38.789Z,48.58
2023-01-05T05:08:27.420Z,48.34
2023-01-05T05:11:16.041Z,48.03
2023-01-05T05:14:04.634Z,48.08
2023-01-05T05:16:53.283Z,47.89
2023-01-05T05:19:43.413Z,47.76
2023-01-05T05:22:32.107Z,47.88
2023-01-05T05:25:20.730Z,47.64
2023-01-05T05:28:09.317Z,47.05
2023-01-05T05:30:58.664Z,46.91
2023-01-05T05:33:47.308Z,46.25
2023-01-05T05:36:38.133Z,46.34
2023-01-05T05:39:26.746Z,45.96
2023-01-05T05:42:15.361Z,46.29
2023-01-05T05:45:04.019Z,46.06
2023-01-05T05:47:52.633Z,46.33
2023-01-05T05:50:41.321Z,46.65
2023-01-05T05:53:31.372Z,47.33
2023-01-05T05:56:20.220Z,46.94
2023-01-05T05:59:08.886Z,47.31
2023-01-05T06:01:57.615Z,47.42
2023-01-05T06:04:46.353Z,47.49
2023-01-05T06:07:35.006Z,47.45
2023-01-05T06:10:24.982Z,47.82
2023-01-05T06:13:13.917Z,47.92
2023-01-05T06:16:02.623Z,47.66
2023-01-05T06:18:51.276Z,47.63
2023-01-05T06:21:39.880Z,47.87
2023-01-05T06:24:28.468Z,47.86
2023-01-05T06:27:18.568Z,48.10
2023-01-05T06:30:08.343Z,47.65
2023-01-05T06:32:57.097Z,47.89
2023-01-05T06:35:45.768Z,48.11
2023-01-05T06:38:34.352Z,47.93
2023-01-05T06:41:22.950Z,48.05
2023-01-05T06:44:13.071Z,48.06
2023-01-05T06:47:01.918Z,48.20
2023-01-05T06:49:50.542Z,48.38
2023-01-05T06:52:40.259Z,48.09
2023-01-05T06:55:30.119Z,48.24
2023-01-05T06:58:18.702Z,47.99
2023-01-05T07:01:08.903Z,48.18
2023-01-05T07:03:57.660Z,48.25
2023-01-05T07:06:46.324Z,48.24
2023-01-05T07:09:34.883Z,47.96
2023-01-05T07:12:23.534Z,47.98
2023-01-05T07:15:12.538Z,48.27
2023-01-05T07:18:02.507Z,48.04
2023-01-05T07:20:51.111Z,48.31
2023-01-05T07:23:39.787Z,47.93
2023-01-05T07:26:28.422Z,47.89
2023-01-05T07:29:17.164Z,47.97
2023-01-05T07:32:06.613Z,48.27
2023-01-05T07:34:56.654Z,48.43
2023-01-05T07:37:45.407Z,48.25
2023-01-05T07:40:33.965Z,48.53
2023-01-05T07:43:22.672Z,48.29
2023-01-05T07:46:11.731Z,48.33
2023-01-05T07:49:00.420Z,48.54
2023-01-05T07:51:50.432Z,48.50
2023-01-05T07:54:39.164Z,48.59
2023-01-05T07:57:27.940Z,48.50
2023-01-05T08:00:17.216Z,48.91
2023-01-05T08:03:05.872Z,48.62
2023-01-05T08:05:54.478Z,48.83
2023-01-05T08:08:44.521Z,48.49
2023-01-05T08:11:33.187Z,48.42
2023-01-05T08:14:21.943Z,48.56
2023-01-05T08:17:10.611Z,48.66
2023-01-05T08:19:59.249Z,48.57
2023-01-05T08:22:52.082Z,48.75
2023-01-05T08:25:42.058Z,48.75
2023-01-05T08:28:35.219Z,48.76
2023-01-05T08:31:27.085Z,49.09
2023-01-05T08:34:15.809Z,48.74
2023-01-05T08:37:04.519Z,48.84
2023-01-05T08:39:53.220Z,49.00
2023-01-05T08:42:43.280Z,49.00
2023-01-05T08:45:32.005Z,48.54
2023-01-05T08:48:20.672Z,48.83
2023-01-05T08:51:09.291Z,48.63
2023-01-05T08:53:59.046Z,48.78
2023-01-05T08:56:50.519Z,48.50
2023-01-05T08:59:40.736Z,48.69
2023-01-05T09:02:29.486Z,48.71
2023-01-05T09:05:18.575Z,48.85
2023-01-05T09:08:07.209Z,48.60
2023-01-05T09:10:55.979Z,48.68
2023-01-05T09:13:47.880Z,48.65
2023-01-05T09:19:46.587Z,47.53
2023-01-05T09:22:36.287Z,47.60
2023-01-05T09:25:25.126Z,47.32
2023-01-05T09:28:13.800Z,46.98
2023-01-05T09:31:08.196Z,46.81
2023-01-05T09:33:59.588Z,46.78
2023-01-05T09:36:48.452Z,47.06
2023-01-05T09:39:37.118Z,47.09
2023-01-05T09:42:27.498Z,47.06
2023-01-05T09:45:23.298Z,47.14
2023-01-05T09:48:13.669Z,46.87
2023-01-05T09:51:03.697Z,46.48
2023-01-05T09:53:52.495Z,46.60
2023-01-05T09:57:08.960Z,46.59
2023-01-05T09:59:54.405Z,46.76
2023-01-05T10:02:48.072Z,46.17
2023-01-05T10:05:40.234Z,46.38
2023-01-05T10:08:35.843Z,46.38
2023-01-05T10:11:47.069Z,46.58
2023-01-05T10:14:40.040Z,46.00
2023-01-05T10:17:41.339Z,45.88
2023-01-05T10:20:37.627Z,45.52
2023-01-05T10:23:50.922Z,45.14
2023-01-05T10:27:14.354Z,45.38
2023-01-05T10:29:59.618Z,45.44
2023-01-05T10:33:14.829Z,45.64
2023-01-05T10:36:16.579Z,45.30
2023-01-05T10:39:14.009Z,45.47
2023-01-05T10:42:08.096Z,45.40
2023-01-05T10:44:59.072Z,45.93
2023-01-05T10:47:48.576Z,46.11
2023-01-05T10:50:39.143Z,45.58
2023-01-05T10:53:29.554Z,46.23
2023-01-05T10:56:25.698Z,46.23
2023-01-05T10:59:15.823Z,45.88
2023-01-05T11:02:04.740Z,45.73
2023-01-05T11:04:54.096Z,45.26
2023-01-05T11:07:48.742Z,45.82
2023-01-05T11:10:39.600Z,45.29
2023-01-05T11:13:34.843Z,44.95
2023-01-05T11:16:26.413Z,46.28
2023-01-05T11:19:18.171Z,46.41
2023-01-05T11:22:06.813Z,46.98
2023-01-05T11:24:55.390Z,46.91
2023-01-05T11:27:44.035Z,46.68
2023-01-05T11:30:34.676Z,46.79
2023-01-05T11:33:25.989Z,46.39
2023-01-05T11:36:16.318Z,46.58
2023-01-05T11:39:05.133Z,46.24
2023-01-05T11:41:53.859Z,46.47
2023-01-05T11:44:47.783Z,46.70
2023-01-05T11:47:44.383Z,47.26
2023-01-05T11:50:35.638Z,47.16
2023-01-05T11:53:37.710Z,47.26
2023-01-05T11:56:26.796Z,47.10
2023-01-05T11:59:30.770Z,47.12
2023-01-05T12:02:34.898Z,47.08
2023-01-05T12:05:30.542Z,46.84
2023-01-05T12:08:23.092Z,46.87
2023-01-05T12:11:14.520Z,46.82
2023-01-05T12:14:21.374Z,46.85
2023-01-05T12:17:15.148Z,46.96
2023-01-05T12:20:14.072Z,47.11
2023-01-05T12:23:19.058Z,47.19
2023-01-05T12:26:15.774Z,46.67
2023-01-05T12:36:18.678Z,46.27
2023-01-05T12:39:31.582Z,46.44
2023-01-05T12:42:34.331Z,46.30
2023-01-05T12:45:58.429Z,46.38
2023-01-05T12:48:49.997Z,46.31
2023-01-05T12:51:42.781Z,46.50
2023-01-05T12:54:39.874Z,46.28
2023-01-05T12:57:32.704Z,46.23
2023-01-05T13:00:22.238Z,46.40
2023-01-05T13:03:17.376Z,46.62
2023-01-05T13:06:08.705Z,46.59
2023-01-05T13:08:59.990Z,46.64
2023-01-05T13:11:53.188Z,46.72
2023-01-05T13:14:52.545Z,46.49
2023-01-05T13:17:44.362Z,46.51
2023-01-05T13:20:40.230Z,46.62
2023-01-05T13:23:30.905Z,46.30
2023-01-05T13:26:20.526Z,46.53
2023-01-05T13:29:23.021Z,46.40
2023-01-05T13:32:23.522Z,46.15
2023-01-05T13:35:23.284Z,45.60
2023-01-05T13:39:00.094Z,45.68
2023-01-05T13:42:08.946Z,45.44
2023-01-05T13:45:25.308Z,46.19
2023-01-05T13:48:44.257Z,46.42
2023-01-05T13:51:47.031Z,45.68
2023-01-05T13:54:59.920Z,45.91
2023-01-05T13:57:49.973Z,45.96
2023-01-05T14:00:43.654Z,45.60
2023-01-05T14:03:34.615Z,45.53
2023-01-05T14:06:26.713Z,45.16
2023-01-05T14:09:18.330Z,44.93
2023-01-05T14:12:25.806Z,45.26
2023-01-05T14:15:37.887Z,45.06
2023-01-05T14:18:52.303Z,44.97
2023-01-05T14:22:02.455Z,45.34
2023-01-05T14:24:52.375Z,45.24
2023-01-05T14:28:24.179Z,45.38
2023-01-05T14:31:38.402Z,45.85
2023-01-05T14:34:29.631Z,42.06
2023-01-05T14:37:24.233Z,38.91
2023-01-05T14:40:22.834Z,40.60
2023-01-05T14:43:24.576Z,41.42
2023-01-05T14:46:15.162Z,41.93
2023-01-05T14:49:06.920Z,41.72
2023-01-05T14:51:58.438Z,41.98
2023-01-05T14:55:27.124Z,42.00
2023-01-05T14:58:50.779Z,42.02
2023-01-05T15:04:33.182Z,41.97
2023-01-05T15:07:33.594Z,41.56
2023-01-05T15:10:49.816Z,41.70
2023-01-05T15:14:15.987Z,41.77
2023-01-05T15:17:45.258Z,42.10
2023-01-05T15:21:19.482Z,41.71
2023-01-05T15:24:49.974Z,41.45
2023-01-05T15:27:51.218Z,41.19
2023-01-05T15:31:04.992Z,42.46
2023-01-05T15:33:57.705Z,42.13
2023-01-05T15:36:51.578Z,41.72
2023-01-05T15:39:48.684Z,41.70
2023-01-05T15:42:40.489Z,41.59
2023-01-05T15:45:30.805Z,41.71
2023-01-05T15:48:27.174Z,41.38
2023-01-05T15:51:24.128Z,41.50
2023-01-05T15:54:24.126Z,41.80
2023-01-05T15:57:22.134Z,41.04
2023-01-05T16:00:18.840Z,41.69
2023-01-05T16:03:22.044Z,41.01
2023-01-05T16:06:12.893Z,41.42
2023-01-05T16:09:09.796Z,40.78
2023-01-05T16:12:01.093Z,41.42
2023-01-05T16:14:57.730Z,41.94
2023-01-05T16:17:46.500Z,42.30
2023-01-05T16:20:36.528Z,42.21
2023-01-05T16:23:29.999Z,42.21
2023-01-05T16:26:19.420Z,42.97
2023-01-05T16:29:21.891Z,43.61
2023-01-05T16:32:28.248Z,44.10
2023-01-05T16:35:33.119Z,44.04
2023-01-05T16:38:26.824Z,44.28
2023-01-05T16:41:21.189Z,44.09
2023-01-05T16:44:14.133Z,44.66
2023-01-05T16:47:07.536Z,44.55
2023-01-05T16:49:58.522Z,44.90
2023-01-05T16:52:53.457Z,44.56
2023-01-05T16:55:42.555Z,44.79
2023-01-05T16:58:39.333Z,44.63
2023-01-05T17:01:35.753Z,44.65
2023-01-05T17:04:24.449Z,44.73
2023-01-05T17:07:14.437Z,45.06
2023-01-05T17:10:03.008Z,45.25
2023-01-05T17:12:57.792Z,45.23
2023-01-05T17:15:47.854Z,43.95
2023-01-05T17:18:36.505Z,44.23
2023-01-05T17:21:27.456Z,43.99
2023-01-05T17:24:17.525Z,43.75
2023-01-05T17:27:06.185Z,43.75
2023-01-05T17:32:49.142Z,43.65
2023-01-05T17:35:37.803Z,43.69
2023-01-05T17:38:26.416Z,43.47
2023-01-05T17:41:17.142Z,43.62
2023-01-05T17:44:06.188Z,43.42
2023-01-05T17:46:54.852Z,43.94
2023-01-05T17:49:43.833Z,43.59
2023-01-05T17:52:32.497Z,44.20
2023-01-05T17:55:21.120Z,43.58
2023-01-05T17:58:13.407Z,43.74
2023-01-05T18:01:02.155Z,43.41
2023-01-05T18:03:50.952Z,43.82
2023-01-05T18:06:39.596Z,43.73
2023-01-05T18:09:28.305Z,43.58
2023-01-05T18:12:16.881Z,43.82
2023-01-05T18:15:08.306Z,44.01
2023-01-05T18:17:58.272Z,43.70
2023-01-05T18:20:46.881Z,43.82
2023-01-05T18:23:35.873Z,44.04
2023-01-05T18:26:24.510Z,44.97
2023-01-05T18:29:13.213Z,44.95
2023-01-05T18:32:03.166Z,45.09
2023-01-05T18:34:52.361Z,45.12
2023-01-05T18:37:41.643Z,44.57
2023-01-05T18:40:30.275Z,44.87
2023-01-05T18:43:19.124Z,43.97
2023-01-05T18:46:08.212Z,43.99
2023-01-05T18:48:58.152Z,44.37
2023-01-05T18:51:46.788Z,44.37
2023-01-05T18:54:35.443Z,44.40
2023-01-05T18:57:24.111Z,44.57
2023-01-05T19:00:14.155Z,44.88
2023-01-05T19:03:05.243Z,44.92
2023-01-05T19:05:55.186Z,45.32
2023-01-05T19:08:44.140Z,45.04
2023-01-05T19:11:33.050Z,45.19
2023-01-05T19:14:21.700Z,45.01
2023-01-05T19:17:10.318Z,45.07
2023-01-05T19:19:58.990Z,45.21
2023-01-05T19:22:49.128Z,45.51
2023-01-05T19:25:37.780Z,45.53
2023-01-05T19:28:26.406Z,45.50
2023-01-05T19:31:16.348Z,45.50
2023-01-05T19:34:05.715Z,45.33
2023-01-05T19:36:54.322Z,45.53
2023-01-05T19:39:44.317Z,45.51
2023-01-05T19:42:33.160Z,45.42
2023-01-05T19:45:21.848Z,45.32
2023-01-05T19:48:10.466Z,45.46
2023-01-05T19:50:59.691Z,45.57
2023-01-05T19:53:55.414Z,45.73
2023-01-05T19:56:46.232Z,45.53
2023-01-05T19:59:34.876Z,45.73
2023-01-05T20:02:23.463Z,45.84
2023-01-05T20:05:14.061Z,45.66
2023-01-05T20:08:02.839Z,45.80
2023-01-05T20:10:51.366Z,46.01
2023-01-05T20:13:42.012Z,45.94
2023-01-05T20:16:30.654Z,45.83
2023-01-05T20:19:19.916Z,45.81
2023-01-05T20:22:13.559Z,45.89
2023-01-05T20:25:02.302Z,45.92
2023-01-05T20:27:51.073Z,45.81
2023-01-05T20:30:41.018Z,46.15
2023-01-05T20:33:30.082Z,46.04
2023-01-05T20:36:18.772Z,46.08
2023-01-05T20:39:08.869Z,45.97
2023-01-05T20:42:04.549Z,45.73
2023-01-05T20:44:53.313Z,45.62
2023-01-05T20:47:47.702Z,46.01
2023-01-05T20:50:36.742Z,46.19
2023-01-05T20:53:25.349Z,46.39
2023-01-05T20:56:16.051Z,46.28
2023-01-05T20:59:04.986Z,46.53
2023-01-05T21:01:53.682Z,46.45
2023-01-05T21:04:43.659Z,46.33
2023-01-05T21:07:32.274Z,46.19
2023-01-05T21:10:20.965Z,46.26
2023-01-05T21:13:30.750Z,46.49
2023-01-05T21:16:20.485Z,46.37
2023-01-05T21:19:09.652Z,46.36
2023-01-05T21:21:59.987Z,46.25
2023-01-05T21:24:48.663Z,46.33
2023-01-05T21:27:37.498Z,46.47
2023-01-05T21:30:26.044Z,46.58
2023-01-05T21:33:15.405Z,46.55
2023-01-05T21:36:04.233Z,46.65
2023-01-05T21:39:01.187Z,46.40
2023-01-05T21:42:09.946Z,46.66
2023-01-05T21:44:58.661Z,46.82
2023-01-05T21:47:52.958Z,46.62
2023-01-05T21:50:59.250Z,46.79
2023-01-05T21:54:07.970Z,46.96
2023-01-05T21:56:59.091Z,47.24
2023-01-05T21:59:47.717Z,47.28
2023-01-05T22:02:36.450Z,47.25
2023-01-05T22:05:25.018Z,47.30
2023-01-05T22:08:13.704Z,47.47
2023-01-05T22:11:02.881Z,47.02
2023-01-05T22:13:52.915Z,47.17
2023-01-05T22:16:41.803Z,47.30
2023-01-05T22:19:30.433Z,46.73
2023-01-05T22:22:19.121Z,46.25
2023-01-05T22:25:08.541Z,46.59
2023-01-05T22:27:57.630Z,46.13
2023-01-05T22:30:47.610Z,45.89
2023-01-05T22:33:38.084Z,46.00
2023-01-05T22:36:27.968Z,45.75
2023-01-05T22:39:16.824Z,45.39
2023-01-05T22:42:05.586Z,45.34
2023-01-05T22:44:54.151Z,45.35
2023-01-05T22:47:44.194Z,45.19
2023-01-05T22:50:33.485Z,46.20
2023-01-05T22:53:22.374Z,46.63
2023-01-05T22:56:12.700Z,46.84
2023-01-05T22:59:01.832Z,47.12
2023-01-05T23:01:50.779Z,47.01
2023-01-05T23:04:40.766Z,47.28
2023-01-05T23:07:29.409Z,47.43
2023-01-05T23:10:18.247Z,47.32
2023-01-05T23:13:07.064Z,47.49
2023-01-05T23:15:56.321Z,47.83
2023-01-05T23:18:45.254Z,47.69
2023-01-05T23:21:35.706Z,48.15
2023-01-05T23:24:24.890Z,47.89
2023-01-05T23:27:13.527Z,47.99
2023-01-05T23:30:02.152Z,48.18
2023-01-05T23:32:50.770Z,48.12
2023-01-05T23:35:40.052Z,48.04
2023-01-05T23:38:30.358Z,48.23
2023-01-05T23:41:19.448Z,48.28
2023-01-05T23:44:08.738Z,48.35
2023-01-05T23:46:57.336Z,48.65
2023-01-05T23:49:46.079Z,48.46
2023-01-05T23:52:35.029Z,48.89
2023-01-05T23:55:25.067Z,48.72
2023-01-05T23:58:13.826Z,48.83
